sensor_id;sensor_type;location;lat;lon;timestamp;P1;durP1;ratioP1;P2;durP2;ratioP2
67191;SDS011;54120;53.504;49.426;2023-05-10T00:01:32;4.70;;;1.95;;
67191;SDS011;54120;53.504;49.426;2023-05-10T00:03:58;6.45;;;2.15;;
67191;SDS011;54120;53.504;49.426;2023-05-10T00:06:24;9.15;;;2.42;;
67191;SDS011;54120;53.504;49.426;2023-05-10T00:08:50;4.57;;;2.25;;
67191;SDS011;54120;53.504;49.426;2023-05-10T00:11:16;6.78;;;2.75;;
67191;SDS011;54120;53.504;49.426;2023-05-10T00:13:42;9.10;;;4.30;;
67191;SDS011;54120;53.504;49.426;2023-05-10T00:16:08;7.30;;;3.28;;
67191;SDS011;54120;53.504;49.426;2023-05-10T00:18:34;22.02;;;6.20;;
67191;SDS011;54120;53.504;49.426;2023-05-10T00:21:01;11.02;;;5.38;;
67191;SDS011;54120;53.504;49.426;2023-05-10T00:23:27;11.25;;;4.50;;
67191;SDS011;54120;53.504;49.426;2023-05-10T00:25:53;5.13;;;2.40;;
67191;SDS011;54120;53.504;49.426;2023-05-10T00:28:20;11.55;;;5.57;;
67191;SDS011;54120;53.504;49.426;2023-05-10T00:30:46;12.70;;;5.78;;
67191;SDS011;54120;53.504;49.426;2023-05-10T00:33:14;14.85;;;5.90;;
67191;SDS011;54120;53.504;49.426;2023-05-10T00:35:40;17.30;;;6.78;;
67191;SDS011;54120;53.504;49.426;2023-05-10T00:38:06;14.02;;;6.07;;
67191;SDS011;54120;53.504;49.426;2023-05-10T00:40:32;12.57;;;5.53;;
67191;SDS011;54120;53.504;49.426;2023-05-10T00:43:01;13.23;;;4.45;;
67191;SDS011;54120;53.504;49.426;2023-05-10T00:45:27;8.88;;;4.10;;
67191;SDS011;54120;53.504;49.426;2023-05-10T00:47:54;8.15;;;3.38;;
67191;SDS011;54120;53.504;49.426;2023-05-10T00:50:22;9.07;;;3.45;;
67191;SDS011;54120;53.504;49.426;2023-05-10T00:52:49;13.68;;;4.40;;
67191;SDS011;54120;53.504;49.426;2023-05-10T00:55:15;12.18;;;4.45;;
67191;SDS011;54120;53.504;49.426;2023-05-10T00:57:42;9.98;;;4.25;;
67191;SDS011;54120;53.504;49.426;2023-05-10T01:00:09;12.25;;;4.90;;
67191;SDS011;54120;53.504;49.426;2023-05-10T01:02:36;13.23;;;4.75;;
67191;SDS011;54120;53.504;49.426;2023-05-10T01:05:03;12.95;;;4.78;;
67191;SDS011;54120;53.504;49.426;2023-05-10T01:07:29;13.57;;;4.25;;
67191;SDS011;54120;53.504;49.426;2023-05-10T01:09:56;13.10;;;5.28;;
67191;SDS011;54120;53.504;49.426;2023-05-10T01:12:23;14.88;;;5.28;;
67191;SDS011;54120;53.504;49.426;2023-05-10T01:14:49;13.82;;;5.07;;
67191;SDS011;54120;53.504;49.426;2023-05-10T01:17:15;14.15;;;5.43;;
67191;SDS011;54120;53.504;49.426;2023-05-10T01:19:42;18.48;;;6.22;;
67191;SDS011;54120;53.504;49.426;2023-05-10T01:30:46;7.53;;;3.08;;
67191;SDS011;54120;53.504;49.426;2023-05-10T01:39:11;6.18;;;2.97;;
67191;SDS011;54120;53.504;49.426;2023-05-10T01:45:33;7.75;;;3.15;;
67191;SDS011;54120;53.504;49.426;2023-05-10T01:47:44;5.85;;;2.80;;
67191;SDS011;54120;53.504;49.426;2023-05-10T01:50:17;5.15;;;2.72;;
67191;SDS011;54120;53.504;49.426;2023-05-10T01:52:49;5.57;;;2.90;;
67191;SDS011;54120;53.504;49.426;2023-05-10T01:55:20;9.55;;;2.63;;
67191;SDS011;54120;53.504;49.426;2023-05-10T01:57:50;6.15;;;2.60;;
67191;SDS011;54120;53.504;49.426;2023-05-10T02:00:22;5.53;;;2.30;;
67191;SDS011;54120;53.504;49.426;2023-05-10T02:02:49;8.85;;;3.28;;
67191;SDS011;54120;53.504;49.426;2023-05-10T02:05:18;5.10;;;2.60;;
67191;SDS011;54120;53.504;49.426;2023-05-10T02:07:45;5.63;;;3.38;;
67191;SDS011;54120;53.504;49.426;2023-05-10T02:10:12;5.43;;;2.50;;
67191;SDS011;54120;53.504;49.426;2023-05-10T02:12:43;9.32;;;2.70;;
67191;SDS011;54120;53.504;49.426;2023-05-10T02:15:14;7.90;;;3.03;;
67191;SDS011;54120;53.504;49.426;2023-05-10T02:17:44;7.13;;;2.40;;
67191;SDS011;54120;53.504;49.426;2023-05-10T02:20:13;10.02;;;3.08;;
67191;SDS011;54120;53.504;49.426;2023-05-10T02:22:41;14.02;;;4.75;;
67191;SDS011;54120;53.504;49.426;2023-05-10T02:25:08;9.60;;;3.38;;
67191;SDS011;54120;53.504;49.426;2023-05-10T02:27:36;11.25;;;3.25;;
67191;SDS011;54120;53.504;49.426;2023-05-10T02:30:04;10.75;;;3.28;;
67191;SDS011;54120;53.504;49.426;2023-05-10T02:32:33;4.35;;;2.53;;
67191;SDS011;54120;53.504;49.426;2023-05-10T02:35:01;6.45;;;2.85;;
67191;SDS011;54120;53.504;49.426;2023-05-10T02:37:28;9.15;;;2.67;;
67191;SDS011;54120;53.504;49.426;2023-05-10T02:39:55;9.40;;;2.67;;
67191;SDS011;54120;53.504;49.426;2023-05-10T02:42:26;14.25;;;3.00;;
67191;SDS011;54120;53.504;49.426;2023-05-10T02:44:56;9.35;;;3.58;;
67191;SDS011;54120;53.504;49.426;2023-05-10T02:47:26;9.85;;;3.55;;
67191;SDS011;54120;53.504;49.426;2023-05-10T02:49:53;15.57;;;6.15;;
67191;SDS011;54120;53.504;49.426;2023-05-10T02:52:21;10.02;;;4.00;;
67191;SDS011;54120;53.504;49.426;2023-05-10T02:54:52;14.02;;;3.38;;
67191;SDS011;54120;53.504;49.426;2023-05-10T02:57:28;10.27;;;3.30;;
67191;SDS011;54120;53.504;49.426;2023-05-10T02:59:59;13.25;;;5.35;;
67191;SDS011;54120;53.504;49.426;2023-05-10T03:02:27;15.48;;;3.67;;
67191;SDS011;54120;53.504;49.426;2023-05-10T03:04:56;11.77;;;4.32;;
67191;SDS011;54120;53.504;49.426;2023-05-10T03:07:22;12.85;;;4.40;;
67191;SDS011;54120;53.504;49.426;2023-05-10T03:09:48;15.20;;;5.40;;
67191;SDS011;54120;53.504;49.426;2023-05-10T03:12:17;9.77;;;4.78;;
67191;SDS011;54120;53.504;49.426;2023-05-10T03:18:13;7.28;;;2.53;;
67191;SDS011;54120;53.504;49.426;2023-05-10T03:20:49;5.32;;;2.50;;
67191;SDS011;54120;53.504;49.426;2023-05-10T03:26:09;5.90;;;2.65;;
67191;SDS011;54120;53.504;49.426;2023-05-10T03:28:41;4.82;;;2.20;;
67191;SDS011;54120;53.504;49.426;2023-05-10T03:31:07;4.82;;;2.30;;
67191;SDS011;54120;53.504;49.426;2023-05-10T03:33:56;11.07;;;3.15;;
67191;SDS011;54120;53.504;49.426;2023-05-10T03:36:22;9.65;;;2.45;;
67191;SDS011;54120;53.504;49.426;2023-05-10T03:38:48;9.02;;;2.95;;
67191;SDS011;54120;53.504;49.426;2023-05-10T03:41:14;7.63;;;2.88;;
67191;SDS011;54120;53.504;49.426;2023-05-10T03:43:40;9.68;;;2.97;;
67191;SDS011;54120;53.504;49.426;2023-05-10T03:46:07;8.57;;;2.95;;
67191;SDS011;54120;53.504;49.426;2023-05-10T03:48:33;5.28;;;2.67;;
67191;SDS011;54120;53.504;49.426;2023-05-10T03:50:59;6.22;;;2.58;;
67191;SDS011;54120;53.504;49.426;2023-05-10T03:53:25;11.40;;;3.55;;
67191;SDS011;54120;53.504;49.426;2023-05-10T03:55:52;14.57;;;2.92;;
67191;SDS011;54120;53.504;49.426;2023-05-10T03:58:18;8.32;;;2.40;;
67191;SDS011;54120;53.504;49.426;2023-05-10T04:00:44;5.05;;;2.40;;
67191;SDS011;54120;53.504;49.426;2023-05-10T04:03:11;5.82;;;2.63;;
67191;SDS011;54120;53.504;49.426;2023-05-10T04:05:37;6.75;;;3.20;;
67191;SDS011;54120;53.504;49.426;2023-05-10T04:08:04;10.23;;;3.58;;
67191;SDS011;54120;53.504;49.426;2023-05-10T04:10:30;7.13;;;3.25;;
67191;SDS011;54120;53.504;49.426;2023-05-10T04:12:57;8.50;;;3.45;;
67191;SDS011;54120;53.504;49.426;2023-05-10T04:15:23;15.13;;;4.65;;
67191;SDS011;54120;53.504;49.426;2023-05-10T04:17:49;10.18;;;3.65;;
67191;SDS011;54120;53.504;49.426;2023-05-10T04:20:16;11.32;;;3.80;;
67191;SDS011;54120;53.504;49.426;2023-05-10T04:22:42;16.08;;;4.07;;
67191;SDS011;54120;53.504;49.426;2023-05-10T04:25:08;9.48;;;3.60;;
67191;SDS011;54120;53.504;49.426;2023-05-10T04:27:35;10.77;;;3.30;;
67191;SDS011;54120;53.504;49.426;2023-05-10T04:30:01;11.20;;;4.45;;
67191;SDS011;54120;53.504;49.426;2023-05-10T04:32:27;11.25;;;4.20;;
67191;SDS011;54120;53.504;49.426;2023-05-10T04:34:53;6.60;;;3.17;;
67191;SDS011;54120;53.504;49.426;2023-05-10T04:37:19;12.07;;;4.30;;
67191;SDS011;54120;53.504;49.426;2023-05-10T04:39:46;7.65;;;3.40;;
67191;SDS011;54120;53.504;49.426;2023-05-10T04:42:12;9.80;;;3.88;;
67191;SDS011;54120;53.504;49.426;2023-05-10T04:44:40;6.97;;;3.22;;
67191;SDS011;54120;53.504;49.426;2023-05-10T04:47:06;8.95;;;3.22;;
67191;SDS011;54120;53.504;49.426;2023-05-10T04:49:32;9.60;;;3.90;;
67191;SDS011;54120;53.504;49.426;2023-05-10T04:51:58;10.43;;;3.92;;
67191;SDS011;54120;53.504;49.426;2023-05-10T04:54:24;7.20;;;2.83;;
67191;SDS011;54120;53.504;49.426;2023-05-10T04:56:50;11.82;;;3.40;;
67191;SDS011;54120;53.504;49.426;2023-05-10T04:59:16;10.30;;;3.95;;
67191;SDS011;54120;53.504;49.426;2023-05-10T05:01:42;18.58;;;7.13;;
67191;SDS011;54120;53.504;49.426;2023-05-10T05:04:08;13.55;;;4.30;;
67191;SDS011;54120;53.504;49.426;2023-05-10T05:06:34;9.02;;;3.90;;
67191;SDS011;54120;53.504;49.426;2023-05-10T05:09:00;8.68;;;3.88;;
67191;SDS011;54120;53.504;49.426;2023-05-10T05:11:26;13.07;;;4.10;;
67191;SDS011;54120;53.504;49.426;2023-05-10T05:13:52;15.55;;;4.80;;
67191;SDS011;54120;53.504;49.426;2023-05-10T05:16:19;10.05;;;3.80;;
67191;SDS011;54120;53.504;49.426;2023-05-10T05:18:45;12.65;;;4.45;;
67191;SDS011;54120;53.504;49.426;2023-05-10T05:21:18;9.40;;;4.22;;
67191;SDS011;54120;53.504;49.426;2023-05-10T05:23:45;11.70;;;4.93;;
67191;SDS011;54120;53.504;49.426;2023-05-10T05:26:12;22.75;;;5.28;;
67191;SDS011;54120;53.504;49.426;2023-05-10T05:28:38;9.85;;;3.78;;
67191;SDS011;54120;53.504;49.426;2023-05-10T05:31:04;6.45;;;3.40;;
67191;SDS011;54120;53.504;49.426;2023-05-10T05:33:31;12.13;;;3.97;;
67191;SDS011;54120;53.504;49.426;2023-05-10T05:36:00;6.65;;;3.53;;
67191;SDS011;54120;53.504;49.426;2023-05-10T05:38:27;11.82;;;3.78;;
67191;SDS011;54120;53.504;49.426;2023-05-10T05:40:54;7.95;;;3.45;;
67191;SDS011;54120;53.504;49.426;2023-05-10T05:43:20;5.88;;;2.75;;
67191;SDS011;54120;53.504;49.426;2023-05-10T05:45:47;7.93;;;2.67;;
67191;SDS011;54120;53.504;49.426;2023-05-10T05:48:13;5.03;;;1.88;;
67191;SDS011;54120;53.504;49.426;2023-05-10T05:50:41;6.00;;;1.70;;
67191;SDS011;54120;53.504;49.426;2023-05-10T05:53:08;3.85;;;1.50;;
67191;SDS011;54120;53.504;49.426;2023-05-10T05:55:35;4.05;;;1.70;;
67191;SDS011;54120;53.504;49.426;2023-05-10T05:58:03;4.40;;;1.30;;
67191;SDS011;54120;53.504;49.426;2023-05-10T06:00:29;2.13;;;1.05;;
67191;SDS011;54120;53.504;49.426;2023-05-10T06:02:57;3.40;;;1.40;;
67191;SDS011;54120;53.504;49.426;2023-05-10T06:05:24;2.88;;;1.20;;
67191;SDS011;54120;53.504;49.426;2023-05-10T06:07:51;10.00;;;1.10;;
67191;SDS011;54120;53.504;49.426;2023-05-10T06:10:19;2.38;;;1.10;;
67191;SDS011;54120;53.504;49.426;2023-05-10T06:12:48;4.35;;;1.20;;
67191;SDS011;54120;53.504;49.426;2023-05-10T06:15:15;2.95;;;1.02;;
67191;SDS011;54120;53.504;49.426;2023-05-10T06:17:41;10.98;;;1.23;;
67191;SDS011;54120;53.504;49.426;2023-05-10T06:20:09;4.32;;;1.10;;
67191;SDS011;54120;53.504;49.426;2023-05-10T06:22:36;3.55;;;1.33;;
67191;SDS011;54120;53.504;49.426;2023-05-10T06:25:02;6.57;;;1.33;;
67191;SDS011;54120;53.504;49.426;2023-05-10T06:27:28;2.83;;;1.00;;
67191;SDS011;54120;53.504;49.426;2023-05-10T06:29:54;3.08;;;1.30;;
67191;SDS011;54120;53.504;49.426;2023-05-10T06:32:20;1.23;;;0.95;;
67191;SDS011;54120;53.504;49.426;2023-05-10T06:34:46;2.70;;;0.90;;
67191;SDS011;54120;53.504;49.426;2023-05-10T06:37:12;1.85;;;1.35;;
67191;SDS011;54120;53.504;49.426;2023-05-10T06:39:38;3.13;;;1.00;;
67191;SDS011;54120;53.504;49.426;2023-05-10T06:42:04;1.33;;;1.10;;
67191;SDS011;54120;53.504;49.426;2023-05-10T06:44:30;2.92;;;1.38;;
67191;SDS011;54120;53.504;49.426;2023-05-10T06:46:56;2.70;;;1.25;;
67191;SDS011;54120;53.504;49.426;2023-05-10T06:49:22;5.78;;;1.13;;
67191;SDS011;54120;53.504;49.426;2023-05-10T06:51:48;1.05;;;0.90;;
67191;SDS011;54120;53.504;49.426;2023-05-10T06:54:14;2.25;;;1.08;;
67191;SDS011;54120;53.504;49.426;2023-05-10T06:56:40;1.60;;;1.20;;
67191;SDS011;54120;53.504;49.426;2023-05-10T06:59:06;3.53;;;1.30;;
67191;SDS011;54120;53.504;49.426;2023-05-10T07:01:32;1.40;;;1.05;;
67191;SDS011;54120;53.504;49.426;2023-05-10T07:03:58;1.50;;;1.17;;
67191;SDS011;54120;53.504;49.426;2023-05-10T07:06:24;4.57;;;1.10;;
67191;SDS011;54120;53.504;49.426;2023-05-10T07:08:50;2.88;;;1.23;;
67191;SDS011;54120;53.504;49.426;2023-05-10T07:11:16;2.53;;;1.30;;
67191;SDS011;54120;53.504;49.426;2023-05-10T07:13:42;2.88;;;1.30;;
67191;SDS011;54120;53.504;49.426;2023-05-10T07:16:10;4.95;;;1.52;;
67191;SDS011;54120;53.504;49.426;2023-05-10T07:18:36;3.70;;;1.23;;
67191;SDS011;54120;53.504;49.426;2023-05-10T07:21:03;2.67;;;1.48;;
67191;SDS011;54120;53.504;49.426;2023-05-10T07:23:29;8.07;;;1.48;;
67191;SDS011;54120;53.504;49.426;2023-05-10T07:25:55;2.83;;;1.30;;
67191;SDS011;54120;53.504;49.426;2023-05-10T07:28:23;1.23;;;1.05;;
67191;SDS011;54120;53.504;49.426;2023-05-10T07:30:49;2.50;;;1.05;;
67191;SDS011;54120;53.504;49.426;2023-05-10T07:33:16;1.83;;;1.00;;
67191;SDS011;54120;53.504;49.426;2023-05-10T07:35:42;4.05;;;1.10;;
67191;SDS011;54120;53.504;49.426;2023-05-10T07:38:08;3.17;;;1.50;;
67191;SDS011;54120;53.504;49.426;2023-05-10T07:40:36;2.10;;;1.30;;
67191;SDS011;54120;53.504;49.426;2023-05-10T07:43:03;2.53;;;1.40;;
67191;SDS011;54120;53.504;49.426;2023-05-10T07:45:29;2.10;;;1.20;;
67191;SDS011;54120;53.504;49.426;2023-05-10T07:47:55;9.70;;;1.75;;
67191;SDS011;54120;53.504;49.426;2023-05-10T07:50:21;6.93;;;1.90;;
67191;SDS011;54120;53.504;49.426;2023-05-10T07:52:47;6.60;;;1.42;;
67191;SDS011;54120;53.504;49.426;2023-05-10T07:55:14;3.47;;;1.88;;
67191;SDS011;54120;53.504;49.426;2023-05-10T07:57:40;3.55;;;1.80;;
67191;SDS011;54120;53.504;49.426;2023-05-10T08:00:06;4.53;;;1.52;;
67191;SDS011;54120;53.504;49.426;2023-05-10T08:02:34;3.20;;;1.25;;
67191;SDS011;54120;53.504;49.426;2023-05-10T08:05:01;1.77;;;1.40;;
67191;SDS011;54120;53.504;49.426;2023-05-10T08:07:27;3.10;;;1.40;;
67191;SDS011;54120;53.504;49.426;2023-05-10T08:09:53;1.58;;;1.40;;
67191;SDS011;54120;53.504;49.426;2023-05-10T08:12:21;5.40;;;1.40;;
67191;SDS011;54120;53.504;49.426;2023-05-10T08:14:47;5.18;;;1.50;;
67191;SDS011;54120;53.504;49.426;2023-05-10T08:17:13;2.60;;;1.58;;
67191;SDS011;54120;53.504;49.426;2023-05-10T08:19:39;4.32;;;2.00;;
67191;SDS011;54120;53.504;49.426;2023-05-10T08:22:06;6.82;;;1.90;;
67191;SDS011;54120;53.504;49.426;2023-05-10T08:24:33;1.67;;;1.55;;
67191;SDS011;54120;53.504;49.426;2023-05-10T08:27:10;7.10;;;1.80;;
67191;SDS011;54120;53.504;49.426;2023-05-10T08:29:36;2.33;;;1.65;;
67191;SDS011;54120;53.504;49.426;2023-05-10T08:32:03;3.58;;;2.00;;
67191;SDS011;54120;53.504;49.426;2023-05-10T08:34:29;3.55;;;2.10;;
67191;SDS011;54120;53.504;49.426;2023-05-10T08:36:56;2.83;;;2.22;;
67191;SDS011;54120;53.504;49.426;2023-05-10T08:39:22;4.25;;;2.28;;
67191;SDS011;54120;53.504;49.426;2023-05-10T08:41:48;3.25;;;2.28;;
67191;SDS011;54120;53.504;49.426;2023-05-10T08:44:19;5.00;;;2.83;;
67191;SDS011;54120;53.504;49.426;2023-05-10T08:46:46;4.13;;;2.63;;
67191;SDS011;54120;53.504;49.426;2023-05-10T08:49:16;3.55;;;2.80;;
67191;SDS011;54120;53.504;49.426;2023-05-10T08:51:50;3.78;;;3.20;;
67191;SDS011;54120;53.504;49.426;2023-05-10T08:54:21;4.82;;;2.88;;
67191;SDS011;54120;53.504;49.426;2023-05-10T08:56:47;4.80;;;3.28;;
67191;SDS011;54120;53.504;49.426;2023-05-10T08:59:14;4.38;;;3.60;;
67191;SDS011;54120;53.504;49.426;2023-05-10T09:01:42;4.10;;;3.70;;
67191;SDS011;54120;53.504;49.426;2023-05-10T09:04:09;7.88;;;4.30;;
67191;SDS011;54120;53.504;49.426;2023-05-10T09:06:36;4.18;;;3.40;;
67191;SDS011;54120;53.504;49.426;2023-05-10T09:09:02;8.15;;;3.30;;
67191;SDS011;54120;53.504;49.426;2023-05-10T09:11:29;5.30;;;3.38;;
67191;SDS011;54120;53.504;49.426;2023-05-10T09:13:55;4.68;;;3.15;;
67191;SDS011;54120;53.504;49.426;2023-05-10T09:16:22;8.38;;;4.30;;
67191;SDS011;54120;53.504;49.426;2023-05-10T09:18:48;8.60;;;3.95;;
67191;SDS011;54120;53.504;49.426;2023-05-10T09:21:15;6.18;;;3.40;;
67191;SDS011;54120;53.504;49.426;2023-05-10T09:23:45;6.30;;;3.60;;
67191;SDS011;54120;53.504;49.426;2023-05-10T09:26:12;5.38;;;4.07;;
67191;SDS011;54120;53.504;49.426;2023-05-10T09:28:55;7.22;;;4.45;;
67191;SDS011;54120;53.504;49.426;2023-05-10T09:31:22;7.00;;;5.20;;
67191;SDS011;54120;53.504;49.426;2023-05-10T09:33:51;8.65;;;6.03;;
67191;SDS011;54120;53.504;49.426;2023-05-10T09:36:18;7.43;;;4.80;;
67191;SDS011;54120;53.504;49.426;2023-05-10T09:38:45;12.43;;;5.32;;
67191;SDS011;54120;53.504;49.426;2023-05-10T09:41:18;6.55;;;4.32;;
67191;SDS011;54120;53.504;49.426;2023-05-10T09:43:46;8.05;;;4.88;;
67191;SDS011;54120;53.504;49.426;2023-05-10T09:46:12;8.95;;;5.15;;
67191;SDS011;54120;53.504;49.426;2023-05-10T09:48:43;6.47;;;4.88;;
67191;SDS011;54120;53.504;49.426;2023-05-10T09:51:18;7.75;;;5.07;;
67191;SDS011;54120;53.504;49.426;2023-05-10T09:53:48;8.40;;;5.38;;
67191;SDS011;54120;53.504;49.426;2023-05-10T09:56:41;6.90;;;5.88;;
67191;SDS011;54120;53.504;49.426;2023-05-10T09:59:09;13.18;;;6.03;;
67191;SDS011;54120;53.504;49.426;2023-05-10T10:01:36;12.30;;;6.15;;
67191;SDS011;54120;53.504;49.426;2023-05-10T10:04:07;6.72;;;5.18;;
67191;SDS011;54120;53.504;49.426;2023-05-10T10:06:35;9.02;;;5.80;;
67191;SDS011;54120;53.504;49.426;2023-05-10T10:09:05;7.95;;;5.47;;
67191;SDS011;54120;53.504;49.426;2023-05-10T10:11:36;8.32;;;5.07;;
67191;SDS011;54120;53.504;49.426;2023-05-10T10:14:04;9.00;;;5.60;;
67191;SDS011;54120;53.504;49.426;2023-05-10T10:16:31;10.35;;;5.30;;
67191;SDS011;54120;53.504;49.426;2023-05-10T10:18:58;10.48;;;5.65;;
67191;SDS011;54120;53.504;49.426;2023-05-10T10:21:24;12.57;;;5.32;;
67191;SDS011;54120;53.504;49.426;2023-05-10T10:23:51;8.13;;;5.65;;
67191;SDS011;54120;53.504;49.426;2023-05-10T10:26:18;9.13;;;4.82;;
67191;SDS011;54120;53.504;49.426;2023-05-10T10:31:43;12.60;;;6.47;;
67191;SDS011;54120;53.504;49.426;2023-05-10T10:36:46;13.77;;;6.35;;
67191;SDS011;54120;53.504;49.426;2023-05-10T10:39:13;10.77;;;6.45;;
67191;SDS011;54120;53.504;49.426;2023-05-10T10:42:01;7.82;;;6.10;;
67191;SDS011;54120;53.504;49.426;2023-05-10T10:47:01;11.63;;;6.85;;
67191;SDS011;54120;53.504;49.426;2023-05-10T10:49:30;14.27;;;6.22;;
67191;SDS011;54120;53.504;49.426;2023-05-10T10:52:14;10.07;;;6.45;;
67191;SDS011;54120;53.504;49.426;2023-05-10T10:57:48;8.25;;;5.35;;
67191;SDS011;54120;53.504;49.426;2023-05-10T11:02:47;9.15;;;5.65;;
67191;SDS011;54120;53.504;49.426;2023-05-10T11:10:37;8.15;;;5.07;;
67191;SDS011;54120;53.504;49.426;2023-05-10T11:13:08;8.15;;;5.75;;
67191;SDS011;54120;53.504;49.426;2023-05-10T11:15:36;8.75;;;4.82;;
67191;SDS011;54120;53.504;49.426;2023-05-10T11:18:23;8.20;;;5.20;;
67191;SDS011;54120;53.504;49.426;2023-05-10T11:20:55;8.30;;;5.07;;
67191;SDS011;54120;53.504;49.426;2023-05-10T11:23:28;7.50;;;4.95;;
67191;SDS011;54120;53.504;49.426;2023-05-10T11:25:56;7.22;;;4.90;;
67191;SDS011;54120;53.504;49.426;2023-05-10T11:28:23;9.65;;;5.53;;
67191;SDS011;54120;53.504;49.426;2023-05-10T11:30:49;8.52;;;5.55;;
67191;SDS011;54120;53.504;49.426;2023-05-10T11:33:16;13.23;;;7.07;;
67191;SDS011;54120;53.504;49.426;2023-05-10T11:35:43;9.43;;;5.78;;
67191;SDS011;54120;53.504;49.426;2023-05-10T11:38:10;10.45;;;6.00;;
67191;SDS011;54120;53.504;49.426;2023-05-10T11:40:37;6.78;;;5.53;;
67191;SDS011;54120;53.504;49.426;2023-05-10T11:43:04;8.82;;;5.97;;
67191;SDS011;54120;53.504;49.426;2023-05-10T11:45:34;9.60;;;5.53;;
67191;SDS011;54120;53.504;49.426;2023-05-10T11:48:01;8.95;;;5.60;;
67191;SDS011;54120;53.504;49.426;2023-05-10T11:50:28;11.15;;;6.05;;
67191;SDS011;54120;53.504;49.426;2023-05-10T11:52:54;15.00;;;5.85;;
67191;SDS011;54120;53.504;49.426;2023-05-10T11:55:22;6.70;;;5.20;;
67191;SDS011;54120;53.504;49.426;2023-05-10T11:57:53;7.15;;;5.28;;
67191;SDS011;54120;53.504;49.426;2023-05-10T12:00:20;8.98;;;4.82;;
67191;SDS011;54120;53.504;49.426;2023-05-10T12:02:47;10.68;;;4.72;;
67191;SDS011;54120;53.504;49.426;2023-05-10T12:05:13;6.68;;;4.75;;
67191;SDS011;54120;53.504;49.426;2023-05-10T12:07:41;8.82;;;5.70;;
67191;SDS011;54120;53.504;49.426;2023-05-10T12:12:41;12.43;;;6.25;;
67191;SDS011;54120;53.504;49.426;2023-05-10T12:15:12;15.20;;;5.53;;
67191;SDS011;54120;53.504;49.426;2023-05-10T12:17:45;11.35;;;5.30;;
67191;SDS011;54120;53.504;49.426;2023-05-10T12:20:12;7.72;;;5.13;;
67191;SDS011;54120;53.504;49.426;2023-05-10T12:22:40;9.65;;;5.18;;
67191;SDS011;54120;53.504;49.426;2023-05-10T12:25:09;7.28;;;4.78;;
67191;SDS011;54120;53.504;49.426;2023-05-10T12:27:35;7.43;;;4.97;;
67191;SDS011;54120;53.504;49.426;2023-05-10T12:30:02;7.25;;;5.10;;
67191;SDS011;54120;53.504;49.426;2023-05-10T12:32:41;6.68;;;4.85;;
67191;SDS011;54120;53.504;49.426;2023-05-10T12:35:10;6.65;;;4.65;;
67191;SDS011;54120;53.504;49.426;2023-05-10T12:37:36;8.20;;;4.97;;
67191;SDS011;54120;53.504;49.426;2023-05-10T12:40:08;10.88;;;5.60;;
67191;SDS011;54120;53.504;49.426;2023-05-10T12:42:36;12.43;;;5.32;;
67191;SDS011;54120;53.504;49.426;2023-05-10T12:45:07;6.45;;;5.25;;
67191;SDS011;54120;53.504;49.426;2023-05-10T12:47:34;7.35;;;5.05;;
67191;SDS011;54120;53.504;49.426;2023-05-10T12:50:00;8.32;;;5.80;;
67191;SDS011;54120;53.504;49.426;2023-05-10T12:52:28;8.55;;;5.13;;
67191;SDS011;54120;53.504;49.426;2023-05-10T12:54:55;6.47;;;4.82;;
67191;SDS011;54120;53.504;49.426;2023-05-10T12:57:21;5.93;;;5.05;;
67191;SDS011;54120;53.504;49.426;2023-05-10T12:59:47;6.30;;;4.93;;
67191;SDS011;54120;53.504;49.426;2023-05-10T13:02:13;8.43;;;5.60;;
67191;SDS011;54120;53.504;49.426;2023-05-10T13:04:40;12.60;;;4.97;;
67191;SDS011;54120;53.504;49.426;2023-05-10T13:07:07;7.10;;;5.10;;
67191;SDS011;54120;53.504;49.426;2023-05-10T13:09:33;10.32;;;6.10;;
67191;SDS011;54120;53.504;49.426;2023-05-10T13:12:01;7.65;;;5.05;;
67191;SDS011;54120;53.504;49.426;2023-05-10T13:14:28;10.27;;;4.80;;
67191;SDS011;54120;53.504;49.426;2023-05-10T13:16:55;8.82;;;5.10;;
67191;SDS011;54120;53.504;49.426;2023-05-10T13:19:21;8.10;;;5.25;;
67191;SDS011;54120;53.504;49.426;2023-05-10T13:21:48;8.48;;;4.90;;
67191;SDS011;54120;53.504;49.426;2023-05-10T13:24:14;7.78;;;5.47;;
67191;SDS011;54120;53.504;49.426;2023-05-10T13:26:40;14.02;;;6.20;;
67191;SDS011;54120;53.504;49.426;2023-05-10T13:29:07;10.30;;;6.28;;
67191;SDS011;54120;53.504;49.426;2023-05-10T13:31:34;9.43;;;6.47;;
67191;SDS011;54120;53.504;49.426;2023-05-10T13:34:01;10.68;;;5.90;;
67191;SDS011;54120;53.504;49.426;2023-05-10T13:36:28;6.63;;;5.03;;
67191;SDS011;54120;53.504;49.426;2023-05-10T13:38:54;9.55;;;5.50;;
67191;SDS011;54120;53.504;49.426;2023-05-10T13:41:21;15.18;;;6.00;;
67191;SDS011;54120;53.504;49.426;2023-05-10T13:43:47;9.13;;;6.13;;
67191;SDS011;54120;53.504;49.426;2023-05-10T13:46:14;9.15;;;5.63;;
67191;SDS011;54120;53.504;49.426;2023-05-10T13:48:41;9.02;;;5.32;;
67191;SDS011;54120;53.504;49.426;2023-05-10T13:51:07;6.85;;;5.03;;
67191;SDS011;54120;53.504;49.426;2023-05-10T13:53:34;6.32;;;4.45;;
67191;SDS011;54120;53.504;49.426;2023-05-10T13:56:00;13.63;;;5.70;;
67191;SDS011;54120;53.504;49.426;2023-05-10T13:58:27;11.35;;;6.20;;
67191;SDS011;54120;53.504;49.426;2023-05-10T14:00:54;11.77;;;6.72;;
67191;SDS011;54120;53.504;49.426;2023-05-10T14:03:22;9.07;;;5.35;;
67191;SDS011;54120;53.504;49.426;2023-05-10T14:05:48;7.28;;;5.68;;
67191;SDS011;54120;53.504;49.426;2023-05-10T14:08:14;12.40;;;6.10;;
67191;SDS011;54120;53.504;49.426;2023-05-10T14:10:41;8.85;;;5.20;;
67191;SDS011;54120;53.504;49.426;2023-05-10T14:13:08;13.25;;;5.68;;
67191;SDS011;54120;53.504;49.426;2023-05-10T14:15:34;7.15;;;5.00;;
67191;SDS011;54120;53.504;49.426;2023-05-10T14:18:00;7.50;;;3.63;;
67191;SDS011;54120;53.504;49.426;2023-05-10T14:20:27;10.55;;;2.67;;
67191;SDS011;54120;53.504;49.426;2023-05-10T14:22:53;7.30;;;2.10;;
67191;SDS011;54120;53.504;49.426;2023-05-10T14:25:19;3.88;;;1.92;;
67191;SDS011;54120;53.504;49.426;2023-05-10T14:27:46;7.00;;;2.10;;
67191;SDS011;54120;53.504;49.426;2023-05-10T14:30:12;9.85;;;2.38;;
67191;SDS011;54120;53.504;49.426;2023-05-10T14:32:38;7.80;;;1.85;;
67191;SDS011;54120;53.504;49.426;2023-05-10T14:35:05;4.95;;;2.35;;
67191;SDS011;54120;53.504;49.426;2023-05-10T14:37:31;2.63;;;2.10;;
67191;SDS011;54120;53.504;49.426;2023-05-10T14:39:57;9.38;;;2.13;;
67191;SDS011;54120;53.504;49.426;2023-05-10T14:42:23;3.20;;;1.90;;
67191;SDS011;54120;53.504;49.426;2023-05-10T14:44:49;4.70;;;2.38;;
67191;SDS011;54120;53.504;49.426;2023-05-10T14:47:15;7.40;;;3.17;;
67191;SDS011;54120;53.504;49.426;2023-05-10T14:49:41;4.13;;;1.90;;
67191;SDS011;54120;53.504;49.426;2023-05-10T14:52:07;5.68;;;1.70;;
67191;SDS011;54120;53.504;49.426;2023-05-10T14:54:33;4.40;;;2.10;;
67191;SDS011;54120;53.504;49.426;2023-05-10T14:56:59;7.93;;;2.08;;
67191;SDS011;54120;53.504;49.426;2023-05-10T14:59:26;12.82;;;2.20;;
67191;SDS011;54120;53.504;49.426;2023-05-10T15:01:52;5.13;;;1.92;;
67191;SDS011;54120;53.504;49.426;2023-05-10T15:04:18;7.30;;;3.72;;
67191;SDS011;54120;53.504;49.426;2023-05-10T15:06:44;4.30;;;2.35;;
67191;SDS011;54120;53.504;49.426;2023-05-10T15:09:10;2.92;;;2.13;;
67191;SDS011;54120;53.504;49.426;2023-05-10T15:11:36;5.28;;;2.08;;
67191;SDS011;54120;53.504;49.426;2023-05-10T15:14:02;3.75;;;1.77;;
67191;SDS011;54120;53.504;49.426;2023-05-10T15:16:28;2.35;;;1.85;;
67191;SDS011;54120;53.504;49.426;2023-05-10T15:18:54;3.97;;;1.90;;